createdAt,value
2023-01-31T06:48:24.109Z,25.00
2023-01-31T06:49:24.088Z,25.00
2023-01-31T06:50:24.106Z,25.00
2023-01-31T06:51:23.997Z,25.00
2023-01-31T06:52:23.964Z,25.00
2023-01-31T06:53:23.914Z,25.00
2023-01-31T06:54:23.886Z,0.00
2023-01-31T06:55:23.845Z,0.00
2023-01-31T06:56:23.800Z,0.00
2023-01-31T06:57:23.777Z,0.00
2023-01-31T06:58:23.714Z,0.00
2023-01-31T06:59:23.678Z,0.00
2023-01-31T07:00:23.633Z,0.00
2023-01-31T07:01:23.642Z,0.00
2023-01-31T07:22:22.878Z,3.78
2023-01-31T07:24:22.796Z,28.55
2023-01-31T07:25:22.750Z,25.24
2023-01-31T07:27:22.699Z,25.95
2023-01-31T07:28:22.655Z,26.78
2023-01-31T07:29:22.623Z,26.74
2023-01-31T07:30:22.629Z,28.29
2023-01-31T07:31:22.572Z,25.00
2023-01-31T07:32:22.501Z,25.76
2023-01-31T07:33:22.471Z,26.10
2023-01-31T07:34:22.502Z,27.93
2023-01-31T07:35:22.668Z,26.10
2023-01-31T07:36:22.407Z,25.00
2023-01-31T07:37:22.337Z,25.13
2023-01-31T07:38:22.309Z,24.89
2023-01-31T07:39:22.283Z,22.19
2023-01-31T07:40:22.268Z,18.30
2023-01-31T07:41:22.233Z,20.92
2023-01-31T07:42:22.204Z,22.39
2023-01-31T07:43:22.192Z,14.77
2023-01-31T07:44:22.152Z,8.03
2023-01-31T07:45:23.791Z,4.16
2023-01-31T07:46:22.124Z,2.58
2023-01-31T07:47:22.047Z,26.26
2023-01-31T07:48:22.019Z,26.81
2023-01-31T07:49:21.983Z,29.99
2023-01-31T07:50:21.953Z,27.00
2023-01-31T07:51:21.925Z,29.40
2023-01-31T07:52:21.879Z,32.29
2023-01-31T07:53:21.856Z,35.71
2023-01-31T07:54:21.819Z,40.90
2023-01-31T07:55:22.194Z,43.14
2023-01-31T07:56:21.793Z,49.77
2023-01-31T07:57:21.688Z,55.13
2023-01-31T07:58:21.668Z,62.66
2023-01-31T07:59:21.623Z,63.45
2023-01-31T08:00:21.563Z,64.38
2023-01-31T08:01:21.552Z,69.93
2023-01-31T08:02:21.488Z,70.84
2023-01-31T08:03:21.450Z,64.00
2023-01-31T08:04:22.730Z,62.57
2023-01-31T08:05:21.762Z,65.42
2023-01-31T08:06:21.323Z,66.75
2023-01-31T08:07:21.289Z,68.77
2023-01-31T08:08:21.243Z,69.92
2023-01-31T08:09:21.200Z,68.29
2023-01-31T08:10:21.171Z,67.26
2023-01-31T08:11:21.134Z,67.69
2023-01-31T08:12:21.107Z,68.57
2023-01-31T08:13:21.062Z,66.05
2023-01-31T08:14:21.041Z,64.82
2023-01-31T08:15:21.427Z,67.47
2023-01-31T08:16:20.995Z,67.53
2023-01-31T08:17:20.979Z,66.71
2023-01-31T08:18:20.913Z,62.98
2023-01-31T08:19:20.873Z,66.93
2023-01-31T08:20:20.845Z,66.02
2023-01-31T08:21:20.812Z,64.85
2023-01-31T08:22:20.782Z,63.51
2023-01-31T08:23:21.487Z,65.98
2023-01-31T08:24:20.716Z,66.58
2023-01-31T08:25:21.049Z,67.26
2023-01-31T08:26:20.691Z,68.98
2023-01-31T08:27:20.566Z,70.46
2023-01-31T08:28:20.518Z,69.82
2023-01-31T08:29:20.486Z,68.92
2023-01-31T08:30:20.516Z,70.51
2023-01-31T08:31:20.506Z,68.82
2023-01-31T08:32:20.379Z,67.66
2023-01-31T08:33:20.280Z,77.01
2023-01-31T08:34:20.241Z,77.20
2023-01-31T08:35:20.545Z,72.10
2023-01-31T08:36:20.157Z,68.42
2023-01-31T08:37:20.174Z,64.84
2023-01-31T08:38:20.124Z,62.49
2023-01-31T08:39:20.021Z,67.82
2023-01-31T08:40:19.991Z,71.32
2023-01-31T08:41:19.948Z,70.28
2023-01-31T08:42:20.012Z,70.13
2023-01-31T08:43:19.891Z,70.55
2023-01-31T08:44:19.827Z,71.12
2023-01-31T08:45:20.136Z,72.31
2023-01-31T08:46:19.795Z,76.18
2023-01-31T08:47:19.732Z,79.73
2023-01-31T08:48:19.683Z,85.96
2023-01-31T08:49:19.672Z,82.65
2023-01-31T08:50:27.747Z,87.61
2023-01-31T08:51:20.582Z,88.21
2023-01-31T08:52:19.499Z,91.02
2023-01-31T08:53:19.468Z,96.78
2023-01-31T08:54:19.419Z,98.36
2023-01-31T08:55:19.645Z,113.73
2023-01-31T08:56:19.412Z,113.89
2023-01-31T08:57:19.305Z,116.99
2023-01-31T08:58:19.268Z,127.84
2023-01-31T08:59:19.223Z,133.15
2023-01-31T09:00:19.174Z,133.61
2023-01-31T09:01:19.177Z,135.36
2023-01-31T09:02:19.087Z,136.05
2023-01-31T09:03:19.116Z,135.98
2023-01-31T09:04:18.994Z,135.54
2023-01-31T09:05:19.215Z,137.00
2023-01-31T09:06:18.943Z,136.12
2023-01-31T09:07:18.862Z,133.59
2023-01-31T09:08:18.812Z,135.14
2023-01-31T09:09:18.766Z,133.70
2023-01-31T09:10:18.717Z,129.49
2023-01-31T09:11:18.672Z,118.87
2023-01-31T09:12:18.633Z,113.29
2023-01-31T09:13:18.583Z,112.62
2023-01-31T09:14:18.535Z,93.60
2023-01-31T09:15:19.007Z,25.00
2023-01-31T09:16:18.439Z,9.54
2023-01-31T09:17:18.461Z,39.41
2023-01-31T09:18:18.570Z,18.31
2023-01-31T09:19:18.346Z,4.52
2023-01-31T09:20:18.274Z,4.25
2023-01-31T09:21:18.243Z,0.00
2023-01-31T09:22:18.208Z,0.00
2023-01-31T09:23:18.177Z,9.63
2023-01-31T09:24:18.114Z,24.16
2023-01-31T09:25:18.386Z,24.95
2023-01-31T09:26:18.083Z,21.15
2023-01-31T09:27:18.040Z,24.50
2023-01-31T09:28:17.979Z,33.15
2023-01-31T09:29:17.946Z,29.97
2023-01-31T09:30:17.913Z,80.55
2023-01-31T09:31:17.922Z,108.91
2023-01-31T09:32:17.854Z,143.52
2023-01-31T09:33:17.813Z,158.58
2023-01-31T09:34:17.781Z,185.35
2023-01-31T09:35:18.091Z,214.11
2023-01-31T09:36:17.712Z,217.32
2023-01-31T09:37:17.689Z,229.03
2023-01-31T09:38:17.637Z,236.32
2023-01-31T09:39:17.585Z,241.85
2023-01-31T09:40:17.545Z,249.02
2023-01-31T09:41:17.500Z,246.66
2023-01-31T09:42:18.429Z,248.59
2023-01-31T09:43:17.419Z,248.75
2023-01-31T09:44:17.370Z,249.33
2023-01-31T09:45:17.337Z,250.00
2023-01-31T09:46:17.283Z,249.07
2023-01-31T09:47:17.252Z,245.69
2023-01-31T09:48:17.187Z,248.53
2023-01-31T09:49:17.130Z,231.92
2023-01-31T09:50:17.088Z,220.99
2023-01-31T09:51:17.056Z,223.08
2023-01-31T09:52:16.999Z,228.21
2023-01-31T09:53:17.022Z,257.80
2023-01-31T09:54:16.907Z,238.91
2023-01-31T09:55:16.896Z,239.33
2023-01-31T09:56:16.824Z,244.56
2023-01-31T09:57:16.761Z,255.56
2023-01-31T09:58:16.726Z,250.08
2023-01-31T09:59:16.680Z,261.70
2023-01-31T10:00:16.631Z,258.10
2023-01-31T10:01:16.658Z,249.38
2023-01-31T10:02:16.566Z,240.41
2023-01-31T10:03:16.495Z,234.85
2023-01-31T10:04:16.507Z,234.40
2023-01-31T10:05:16.439Z,235.12
2023-01-31T10:06:16.378Z,238.22
2023-01-31T10:07:16.337Z,239.12
2023-01-31T10:08:16.298Z,243.17
2023-01-31T10:09:16.238Z,246.89
2023-01-31T10:10:16.195Z,249.59
2023-01-31T10:11:16.146Z,250.00
2023-01-31T10:12:16.111Z,252.05
2023-01-31T10:13:16.063Z,258.82
2023-01-31T10:14:16.042Z,267.67
2023-01-31T10:15:16.002Z,285.17
2023-01-31T10:16:15.976Z,275.76
2023-01-31T10:17:15.975Z,260.82
2023-01-31T10:18:15.865Z,250.00
2023-01-31T10:19:15.835Z,248.88
2023-01-31T10:20:15.776Z,250.00
2023-01-31T10:21:15.768Z,250.00
2023-01-31T10:22:15.705Z,250.00
2023-01-31T10:23:15.641Z,250.00
2023-01-31T10:24:15.610Z,251.07
2023-01-31T10:25:15.550Z,252.04
2023-01-31T10:26:15.605Z,254.12
2023-01-31T10:27:15.453Z,257.25
2023-01-31T10:28:15.415Z,264.13
2023-01-31T10:29:15.350Z,271.61
2023-01-31T10:30:15.307Z,263.00
2023-01-31T10:31:15.316Z,250.00
2023-01-31T10:32:15.219Z,249.16
2023-01-31T10:33:15.212Z,250.00
2023-01-31T10:34:15.127Z,247.57
2023-01-31T10:35:15.076Z,248.86
2023-01-31T10:36:15.054Z,248.48
2023-01-31T10:37:14.989Z,248.68
2023-01-31T10:38:14.955Z,248.03
2023-01-31T10:39:14.941Z,248.97
2023-01-31T10:40:14.889Z,247.93
2023-01-31T10:41:14.819Z,247.02
2023-01-31T10:42:14.792Z,248.05
2023-01-31T10:43:14.750Z,239.32
2023-01-31T10:44:14.690Z,241.73
2023-01-31T10:45:14.657Z,241.13
2023-01-31T10:46:14.662Z,241.19
2023-01-31T10:47:14.557Z,240.29
2023-01-31T10:48:14.524Z,236.27
2023-01-31T10:49:15.509Z,233.98
2023-01-31T10:50:14.453Z,231.59
2023-01-31T10:51:14.385Z,231.46
2023-01-31T10:52:14.377Z,231.92
2023-01-31T10:53:14.335Z,229.46
2023-01-31T10:54:14.268Z,233.45
2023-01-31T10:55:14.220Z,234.70
2023-01-31T10:56:14.169Z,239.77
2023-01-31T10:57:14.126Z,239.23
2023-01-31T10:58:14.067Z,240.02
2023-01-31T10:59:14.029Z,237.82
2023-01-31T11:00:13.969Z,234.61
2023-01-31T11:01:14.029Z,235.59
2023-01-31T11:02:13.954Z,229.90
2023-01-31T11:03:13.826Z,227.95
2023-01-31T11:04:13.834Z,225.50
2023-01-31T11:05:13.799Z,222.86
2023-01-31T11:06:13.728Z,217.50
2023-01-31T11:07:13.721Z,216.93
2023-01-31T11:41:12.392Z,159.43
2023-01-31T14:22:06.072Z,115.96
2023-01-31T14:23:06.039Z,115.34
2023-01-31T14:24:05.991Z,115.61
2023-01-31T14:25:05.985Z,115.83
2023-01-31T14:26:05.909Z,115.77
2023-01-31T14:27:05.915Z,116.04
2023-01-31T14:28:05.835Z,115.78
2023-01-31T14:29:05.778Z,115.38
2023-01-31T14:30:05.938Z,114.53
2023-01-31T14:31:05.690Z,113.35
2023-01-31T14:32:05.648Z,114.31
2023-01-31T14:33:05.613Z,113.99
2023-01-31T14:34:05.580Z,114.33
2023-01-31T14:35:05.548Z,114.25
2023-01-31T14:36:05.481Z,114.03
2023-01-31T14:37:05.452Z,112.08
2023-01-31T14:38:05.408Z,114.81
2023-01-31T14:39:05.374Z,113.38
2023-01-31T14:40:05.402Z,114.04
2023-01-31T14:41:05.306Z,112.12
2023-01-31T14:42:05.253Z,113.47
2023-01-31T14:43:05.262Z,113.45
2023-01-31T14:44:05.187Z,114.59
2023-01-31T14:45:05.231Z,112.92
2023-01-31T14:46:05.162Z,112.80
2023-01-31T14:47:07.833Z,113.21
2023-01-31T14:48:05.053Z,114.19
2023-01-31T14:49:06.009Z,114.53
2023-01-31T14:50:04.998Z,115.06
2023-01-31T14:51:04.937Z,113.27
2023-01-31T14:52:04.888Z,114.03
2023-01-31T14:53:04.860Z,112.36
2023-01-31T14:54:04.822Z,113.03
2023-01-31T14:55:04.790Z,113.67
2023-01-31T14:56:04.759Z,114.65
2023-01-31T14:57:04.703Z,112.58
2023-01-31T14:58:04.704Z,113.29
2023-01-31T14:59:04.637Z,113.40
2023-01-31T15:00:04.603Z,113.46
2023-01-31T15:01:04.617Z,112.48
2023-01-31T15:02:04.567Z,112.46
2023-01-31T15:03:04.653Z,113.58
2023-01-31T15:04:04.492Z,113.51
2023-01-31T15:05:04.439Z,111.61
2023-01-31T15:06:04.380Z,113.95
2023-01-31T15:07:04.355Z,111.10
2023-01-31T15:08:04.305Z,111.92
2023-01-31T15:09:04.276Z,111.86
2023-01-31T15:10:04.264Z,113.08
2023-01-31T15:11:04.201Z,111.82
2023-01-31T15:12:06.248Z,112.32
2023-01-31T15:13:04.358Z,113.47
2023-01-31T15:14:04.298Z,110.72
2023-01-31T15:15:04.250Z,111.83
2023-01-31T15:16:04.209Z,111.88
2023-01-31T15:17:04.178Z,111.91
2023-01-31T15:18:04.121Z,111.99
2023-01-31T15:19:04.073Z,112.07
2023-01-31T15:20:04.133Z,111.94
2023-01-31T15:21:03.995Z,111.15
2023-01-31T15:22:03.964Z,112.50
2023-01-31T15:23:03.928Z,111.65
2023-01-31T15:24:03.880Z,111.01
2023-01-31T15:25:03.852Z,112.22
2023-01-31T15:26:03.826Z,111.66
2023-01-31T15:27:03.763Z,112.10
2023-01-31T17:55:58.633Z,107.22
2023-01-31T17:56:58.570Z,107.56
2023-01-31T17:57:58.552Z,107.59
2023-01-31T17:58:58.503Z,108.23
2023-01-31T17:59:58.480Z,107.14
2023-01-31T18:00:58.433Z,107.69
2023-01-31T18:01:58.425Z,109.05
2023-01-31T18:02:58.474Z,107.93
2023-01-31T18:03:58.328Z,108.94
2023-01-31T18:04:58.297Z,109.77
2023-01-31T18:05:58.267Z,106.97
2023-01-31T18:06:58.261Z,107.69
2023-01-31T18:07:58.245Z,107.16
2023-01-31T18:08:58.168Z,109.24
2023-01-31T18:09:58.141Z,108.77
2023-01-31T18:10:58.136Z,110.56
2023-01-31T18:11:58.091Z,107.86
2023-01-31T18:12:58.059Z,110.06
2023-01-31T18:13:58.028Z,110.57
2023-01-31T18:14:57.996Z,109.08
2023-01-31T18:15:58.024Z,109.50
2023-01-31T18:16:57.957Z,110.12
2023-01-31T18:17:57.906Z,108.88
2023-01-31T18:18:57.875Z,110.47
2023-01-31T18:19:57.847Z,109.67
2023-01-31T18:20:57.817Z,108.67
2023-01-31T18:21:57.782Z,107.78
2023-01-31T18:22:57.750Z,108.28
2023-01-31T18:23:57.709Z,110.92
2023-01-31T18:24:57.703Z,110.70
2023-01-31T18:25:57.651Z,110.24
2023-01-31T18:26:57.634Z,107.68
2023-01-31T18:27:57.607Z,109.81
2023-01-31T18:28:57.759Z,108.62
2023-01-31T18:29:57.524Z,110.34
2023-01-31T18:30:57.711Z,109.41
2023-01-31T18:31:57.799Z,108.40
2023-01-31T18:32:57.457Z,109.11
2023-01-31T18:33:57.425Z,109.25
2023-01-31T18:34:58.254Z,108.77
2023-01-31T18:35:57.354Z,110.45
2023-01-31T18:36:57.339Z,108.37
2023-01-31T18:37:57.266Z,109.72
2023-01-31T18:38:57.239Z,109.09
2023-01-31T18:39:57.780Z,110.91
2023-01-31T18:40:57.186Z,110.87
2023-01-31T18:41:57.136Z,110.85
2023-01-31T18:42:57.133Z,110.28
2023-01-31T18:43:57.083Z,110.37
2023-01-31T18:44:57.050Z,109.96
2023-01-31T18:45:57.044Z,110.59
2023-01-31T18:46:57.049Z,110.75
2023-01-31T18:47:56.951Z,111.05
2023-01-31T18:48:56.949Z,111.24
2023-01-31T18:49:56.925Z,109.67
2023-01-31T18:50:56.873Z,109.53
2023-01-31T18:51:56.840Z,110.16
2023-01-31T18:52:56.796Z,110.88
2023-01-31T18:53:56.776Z,111.51
2023-01-31T18:54:56.743Z,109.73
2023-01-31T18:55:56.697Z,111.57
2023-01-31T18:56:56.667Z,110.49
2023-01-31T18:57:56.633Z,110.41
2023-01-31T18:58:56.600Z,107.42
2023-01-31T18:59:56.583Z,110.43
2023-01-31T19:00:56.584Z,110.43
2023-01-31T19:01:56.543Z,111.63
2023-01-31T19:02:56.543Z,108.82
2023-01-31T19:03:56.521Z,111.06
2023-01-31T19:04:56.467Z,112.71
2023-01-31T19:05:56.544Z,112.56
2023-01-31T19:06:56.389Z,108.30
2023-01-31T19:07:56.319Z,109.80
2023-01-31T19:08:56.311Z,112.67
2023-01-31T19:09:56.240Z,113.02
2023-01-31T19:10:56.209Z,112.50
2023-01-31T19:11:56.171Z,112.04
2023-01-31T19:12:56.138Z,113.56
2023-01-31T19:13:56.127Z,110.72
2023-01-31T19:14:56.076Z,111.04
2023-01-31T19:15:56.039Z,111.62
2023-01-31T19:16:56.008Z,110.66
2023-01-31T19:17:55.960Z,111.14
2023-01-31T19:18:55.915Z,111.39
2023-01-31T19:19:55.918Z,113.45
2023-01-31T19:20:55.848Z,112.20
2023-01-31T19:21:55.825Z,113.32
2023-01-31T19:22:55.761Z,114.19
2023-01-31T19:23:55.749Z,114.38
2023-01-31T19:24:55.709Z,113.48
2023-01-31T19:25:55.690Z,113.11
2023-01-31T19:26:55.632Z,114.09
2023-01-31T19:27:55.607Z,113.89
2023-01-31T19:28:55.558Z,114.85
2023-01-31T19:29:55.529Z,115.46
2023-01-31T19:30:55.527Z,113.73
2023-01-31T19:31:55.625Z,114.97
2023-01-31T19:32:55.431Z,113.86
2023-01-31T19:33:55.405Z,116.10
2023-01-31T19:34:55.372Z,116.96
2023-01-31T19:35:55.364Z,117.06
2023-01-31T19:36:55.365Z,116.56
2023-01-31T19:37:55.290Z,116.41
2023-01-31T19:38:55.285Z,117.34
2023-01-31T19:39:55.226Z,116.89
2023-01-31T19:40:55.179Z,118.42
2023-01-31T19:41:55.163Z,114.89
2023-01-31T19:42:55.113Z,117.40
2023-01-31T19:43:55.123Z,117.97
2023-01-31T19:44:55.032Z,119.27
2023-01-31T19:45:55.031Z,118.55
2023-01-31T19:46:54.974Z,118.08
2023-01-31T19:47:56.720Z,118.90
2023-01-31T19:48:54.899Z,119.94
2023-01-31T19:49:54.854Z,121.66
2023-01-31T19:50:54.827Z,116.82
2023-01-31T19:51:54.786Z,118.75
2023-01-31T19:52:54.740Z,119.09
2023-01-31T19:53:54.697Z,116.74
2023-01-31T19:54:54.686Z,119.48
2023-01-31T19:55:54.706Z,120.84
2023-01-31T19:56:54.625Z,121.41
2023-01-31T19:57:54.579Z,120.77
2023-01-31T19:58:54.547Z,122.70
2023-01-31T19:59:54.516Z,120.02
2023-01-31T20:00:54.478Z,122.56
2023-01-31T20:01:54.471Z,120.08
2023-01-31T20:02:54.432Z,122.43
2023-01-31T20:03:54.393Z,123.22
2023-01-31T20:04:56.858Z,120.07
2023-01-31T20:05:54.339Z,120.38
2023-01-31T20:06:54.304Z,120.70
2023-01-31T20:07:54.289Z,122.00
2023-01-31T20:08:54.251Z,122.36
2023-01-31T20:09:54.225Z,122.30
2023-01-31T20:10:54.223Z,124.67
2023-01-31T20:11:54.174Z,125.64
2023-01-31T20:12:54.149Z,125.85
2023-01-31T20:13:54.116Z,124.05
2023-01-31T20:14:54.084Z,125.69
2023-01-31T20:15:54.056Z,124.54
2023-01-31T20:16:54.071Z,126.05
2023-01-31T20:17:53.987Z,125.82
2023-01-31T20:18:53.952Z,125.07
2023-01-31T20:19:53.933Z,124.56
2023-01-31T20:20:53.905Z,122.86
2023-01-31T20:21:53.924Z,125.95
2023-01-31T20:22:53.855Z,126.01
2023-01-31T20:23:53.822Z,124.66
2023-01-31T20:24:53.782Z,124.33
2023-01-31T21:39:51.440Z,138.93
2023-01-31T21:40:51.415Z,138.72
2023-01-31T21:41:51.380Z,137.98
2023-01-31T21:42:51.359Z,137.63
2023-01-31T21:43:51.333Z,136.15
2023-01-31T21:44:51.314Z,136.55
2023-01-31T21:45:51.280Z,135.67
2023-01-31T21:46:51.259Z,139.19
2023-01-31T21:47:51.227Z,140.32
2023-01-31T21:48:51.215Z,138.17
2023-01-31T21:49:51.170Z,139.45
2023-01-31T21:50:51.150Z,139.99
2023-01-31T21:51:51.108Z,138.62
2023-01-31T21:52:51.083Z,139.56
2023-01-31T21:53:51.065Z,139.52
2023-01-31T21:54:51.024Z,141.88
2023-01-31T21:55:51.018Z,140.30
2023-01-31T21:56:50.964Z,139.93
2023-01-31T21:57:50.936Z,141.57
2023-01-31T21:58:50.928Z,139.90
2023-01-31T21:59:50.897Z,139.14
2023-01-31T22:00:50.868Z,141.59
2023-01-31T22:01:50.927Z,140.76
2023-01-31T22:02:50.867Z,140.89
2023-01-31T22:03:50.882Z,140.26
2023-01-31T22:04:50.792Z,140.19
2023-01-31T22:05:50.756Z,140.81
2023-01-31T22:06:50.730Z,141.65
2023-01-31T22:07:50.702Z,141.02
2023-01-31T22:08:50.675Z,142.29
2023-01-31T22:09:50.645Z,141.46
2023-01-31T22:10:50.613Z,141.58
2023-01-31T22:11:50.586Z,141.76
2023-01-31T22:12:50.548Z,142.08
2023-01-31T22:13:52.656Z,143.50
2023-01-31T22:14:50.506Z,141.59
2023-01-31T22:15:50.525Z,141.52
2023-01-31T22:16:50.446Z,141.58
2023-01-31T22:17:50.415Z,142.05
2023-01-31T22:18:50.384Z,143.92
2023-01-31T22:19:50.372Z,143.32
2023-01-31T22:20:50.330Z,143.15
2023-01-31T22:21:50.300Z,143.99
2023-01-31T22:22:50.274Z,144.34
2023-01-31T22:23:50.241Z,144.53
2023-01-31T22:24:50.225Z,145.01
2023-01-31T22:25:50.175Z,144.28
2023-01-31T22:26:50.228Z,146.42
2023-01-31T22:27:50.125Z,147.20
2023-01-31T22:28:50.099Z,145.33
2023-01-31T22:29:50.075Z,143.76
2023-01-31T22:30:50.072Z,144.84
2023-01-31T22:31:50.156Z,144.89
2023-01-31T22:32:49.983Z,146.09
2023-01-31T22:33:49.970Z,145.97
2023-01-31T22:34:49.936Z,144.79
2023-01-31T22:35:49.897Z,144.91
2023-01-31T22:36:49.878Z,145.22
2023-01-31T22:37:49.869Z,145.16
2023-01-31T22:38:49.830Z,146.20
2023-01-31T22:39:49.787Z,145.31
2023-01-31T22:40:49.769Z,147.88
2023-01-31T22:41:49.740Z,146.65
2023-01-31T22:42:49.711Z,147.32
2023-01-31T22:43:49.685Z,146.89
2023-01-31T22:44:49.655Z,144.52
2023-01-31T22:45:49.625Z,146.11
2023-01-31T22:46:49.634Z,145.86
2023-01-31T22:47:49.593Z,146.12
2023-01-31T22:48:49.700Z,145.74
2023-01-31T22:49:49.515Z,145.33
2023-01-31T22:50:49.514Z,145.50
2023-01-31T22:51:49.458Z,145.92
2023-01-31T22:52:49.435Z,146.40
2023-01-31T22:53:49.428Z,147.08
2023-01-31T22:54:49.381Z,147.26
2023-01-31T22:55:49.336Z,146.20
2023-01-31T22:56:49.293Z,146.73
2023-01-31T22:57:49.264Z,148.47
2023-01-31T22:58:49.231Z,145.19
2023-01-31T22:59:49.194Z,146.36
2023-01-31T23:00:49.169Z,145.75
2023-01-31T23:01:49.124Z,147.24
2023-01-31T23:02:49.095Z,147.58
2023-01-31T23:03:49.199Z,146.22
2023-01-31T23:04:49.022Z,144.20
2023-01-31T23:05:48.971Z,147.76
2023-01-31T23:06:48.945Z,147.85
2023-01-31T23:07:48.910Z,147.74
2023-01-31T23:08:48.915Z,146.60
2023-01-31T23:09:48.872Z,147.98
2023-01-31T23:10:48.809Z,147.55
2023-01-31T23:11:48.772Z,149.45
2023-01-31T23:12:48.757Z,147.63
2023-01-31T23:13:48.711Z,147.49
2023-01-31T23:14:48.677Z,150.09
2023-01-31T23:15:48.679Z,145.93
2023-01-31T23:16:49.375Z,147.61
2023-01-31T23:17:48.585Z,146.61
2023-01-31T23:18:48.528Z,147.36
2023-01-31T23:19:48.486Z,146.47
2023-01-31T23:20:48.475Z,147.88
2023-01-31T23:21:48.410Z,148.13
2023-01-31T23:22:48.378Z,146.91
2023-01-31T23:23:48.342Z,148.28
2023-01-31T23:24:48.312Z,147.55
2023-01-31T23:25:48.284Z,148.80
2023-01-31T23:26:48.347Z,146.65
2023-01-31T23:27:48.208Z,148.68
2023-01-31T23:28:48.178Z,146.51
2023-01-31T23:29:48.151Z,146.76
2023-01-31T23:30:48.235Z,149.96
2023-01-31T23:31:48.171Z,147.73
2023-01-31T23:32:48.048Z,146.59
2023-01-31T23:33:47.998Z,148.33
2023-01-31T23:34:47.959Z,146.81
2023-01-31T23:35:47.940Z,150.07
2023-01-31T23:36:47.903Z,147.99
2023-01-31T23:37:47.857Z,149.78
2023-01-31T23:38:47.823Z,148.50
2023-01-31T23:39:47.796Z,147.48
2023-01-31T23:40:47.756Z,149.00
2023-01-31T23:41:47.701Z,149.12
2023-01-31T23:42:47.681Z,149.59
2023-01-31T23:43:47.655Z,149.00
2023-01-31T23:44:47.589Z,149.40
2023-01-31T23:45:47.556Z,149.07
2023-01-31T23:46:47.575Z,150.63
2023-01-31T23:47:47.485Z,148.99
2023-01-31T23:48:47.449Z,149.38
2023-01-31T23:49:47.391Z,149.23
2023-01-31T23:50:47.367Z,146.71
2023-01-31T23:51:47.330Z,147.14
2023-01-31T23:52:47.308Z,149.21
2023-01-31T23:53:47.270Z,148.75
2023-01-31T23:54:47.241Z,148.56
2023-01-31T23:55:47.215Z,149.44
2023-01-31T23:56:47.175Z,148.74
2023-01-31T23:57:47.142Z,150.70
2023-01-31T23:58:47.105Z,149.97
2023-01-31T23:59:47.066Z,147.77
